createdAt,value
2017-09-22T00:00:49.902Z,17.07
2017-09-22T00:03:17.374Z,18.47
2017-09-22T00:05:44.839Z,17.13
2017-09-22T00:08:12.289Z,18.20
2017-09-22T00:10:39.746Z,18.27
2017-09-22T00:13:07.206Z,18.67
2017-09-22T00:15:34.662Z,17.90
2017-09-22T00:18:02.898Z,18.53
2017-09-22T00:20:30.365Z,19.30
2017-09-22T00:22:57.815Z,20.60
2017-09-22T00:25:25.272Z,18.90
2017-09-22T00:27:52.731Z,18.60
2017-09-22T00:30:20.186Z,18.60
2017-09-22T00:32:47.656Z,18.03
2017-09-22T00:35:15.106Z,19.50
2017-09-22T00:37:42.561Z,17.87
2017-09-22T00:40:10.018Z,18.43
2017-09-22T00:42:37.485Z,19.10
2017-09-22T00:45:04.937Z,18.13
2017-09-22T00:47:32.390Z,19.00
2017-09-22T00:49:59.858Z,19.07
2017-09-22T00:52:27.342Z,19.20
2017-09-22T00:54:54.797Z,19.37
2017-09-22T00:57:22.260Z,20.00
2017-09-22T00:59:49.722Z,19.17
2017-09-22T01:02:17.954Z,19.83
2017-09-22T01:04:45.416Z,20.43
2017-09-22T01:07:12.863Z,20.80
2017-09-22T01:09:41.084Z,19.90
2017-09-22T01:12:09.323Z,20.20
2017-09-22T01:14:36.809Z,21.20
2017-09-22T01:17:04.259Z,19.60
2017-09-22T01:19:31.717Z,20.63
2017-09-22T01:21:59.161Z,19.60
2017-09-22T01:24:26.618Z,21.63
2017-09-22T01:26:54.085Z,21.23
2017-09-22T01:29:21.542Z,21.90
2017-09-22T01:31:48.991Z,23.03
2017-09-22T01:34:16.442Z,21.80
2017-09-22T01:36:43.888Z,20.10
2017-09-22T01:39:11.347Z,21.23
2017-09-22T01:41:38.799Z,19.90
2017-09-22T01:44:06.288Z,21.70
2017-09-22T01:46:33.734Z,21.97
2017-09-22T01:49:01.203Z,22.30
2017-09-22T01:51:28.657Z,23.77
2017-09-22T01:53:57.623Z,21.47
2017-09-22T01:56:25.134Z,21.93
2017-09-22T01:58:53.353Z,22.30
2017-09-22T02:01:20.824Z,22.17
2017-09-22T02:03:48.297Z,21.37
2017-09-22T02:06:15.763Z,21.37
2017-09-22T02:08:43.995Z,21.07
2017-09-22T02:11:12.221Z,20.60
2017-09-22T02:13:40.445Z,20.60
2017-09-22T02:16:08.672Z,20.43
2017-09-22T02:18:36.890Z,19.87
2017-09-22T02:21:04.350Z,20.23
2017-09-22T02:23:31.808Z,21.20
2017-09-22T02:25:59.286Z,19.80
2017-09-22T02:28:27.505Z,20.17
2017-09-22T02:30:55.811Z,20.07
2017-09-22T02:33:23.274Z,19.87
2017-09-22T02:35:50.729Z,20.80
2017-09-22T02:38:18.193Z,19.77
2017-09-22T02:40:45.661Z,19.77
2017-09-22T02:43:13.143Z,20.50
2017-09-22T02:45:40.598Z,21.70
2017-09-22T02:48:08.054Z,19.40
2017-09-22T02:50:35.510Z,20.50
2017-09-22T02:53:02.970Z,19.93
2017-09-22T02:55:30.425Z,20.77
2017-09-22T02:57:57.896Z,21.43
2017-09-22T03:00:25.346Z,20.30
2017-09-22T03:02:52.802Z,18.73
2017-09-22T03:05:20.256Z,19.07
2017-09-22T03:07:47.702Z,19.20
2017-09-22T03:10:15.171Z,20.87
2017-09-22T03:12:42.633Z,18.70
2017-09-22T03:15:10.867Z,20.17
2017-09-22T03:17:38.333Z,19.67
2017-09-22T03:20:06.562Z,20.40
2017-09-22T03:22:34.781Z,21.13
2017-09-22T03:25:02.237Z,20.90
2017-09-22T03:27:29.713Z,20.07
2017-09-22T03:29:57.169Z,19.83
2017-09-22T03:32:24.621Z,21.27
2017-09-22T03:34:52.078Z,20.90
2017-09-22T03:37:19.537Z,21.13
2017-09-22T03:39:48.364Z,20.17
2017-09-22T03:42:16.576Z,21.70
2017-09-22T03:44:44.062Z,20.50
2017-09-22T03:47:11.515Z,21.10
2017-09-22T03:49:39.729Z,20.00
2017-09-22T03:52:07.229Z,19.20
2017-09-22T03:54:34.685Z,19.40
2017-09-22T03:57:02.145Z,19.83
2017-09-22T03:59:29.598Z,19.33
2017-09-22T04:01:57.077Z,19.10
2017-09-22T04:04:24.525Z,20.53
2017-09-22T04:06:51.990Z,20.30
2017-09-22T04:09:19.447Z,18.90
2017-09-22T04:11:46.902Z,18.77
2017-09-22T04:14:14.370Z,18.47
2017-09-22T04:16:41.829Z,18.20
2017-09-22T04:19:09.293Z,18.03
2017-09-22T04:21:36.759Z,17.87
2017-09-22T04:24:04.209Z,17.83
2017-09-22T04:26:31.686Z,19.43
2017-09-22T04:28:59.138Z,18.33
2017-09-22T04:31:26.681Z,17.83
2017-09-22T04:33:54.151Z,18.40
2017-09-22T04:36:21.602Z,16.50
2017-09-22T04:38:49.058Z,17.63
2017-09-22T04:41:16.517Z,16.40
2017-09-22T04:43:43.974Z,17.57
2017-09-22T04:46:11.432Z,18.10
2017-09-22T04:48:38.890Z,18.07
2017-09-22T04:51:06.351Z,17.57
2017-09-22T04:53:33.816Z,24.40
2017-09-22T04:56:01.271Z,26.70
2017-09-22T04:58:29.538Z,25.37
2017-09-22T05:00:57.026Z,23.23
2017-09-22T05:03:24.485Z,24.30
2017-09-22T05:05:51.949Z,22.17
2017-09-22T05:08:19.426Z,21.70
2017-09-22T05:10:46.882Z,20.90
2017-09-22T05:13:14.349Z,21.70
2017-09-22T05:15:41.809Z,20.43
2017-09-22T05:18:09.258Z,20.63
2017-09-22T05:20:36.713Z,20.00
2017-09-22T05:23:04.180Z,20.93
2017-09-22T05:25:31.637Z,21.67
2017-09-22T05:27:59.089Z,27.40
2017-09-22T05:30:26.570Z,25.33
2017-09-22T05:32:54.025Z,24.57
2017-09-22T05:35:21.486Z,24.83
2017-09-22T05:40:22.701Z,21.97
2017-09-22T05:42:50.154Z,22.93
2017-09-22T05:45:17.619Z,21.33
2017-09-22T05:47:45.829Z,21.67
2017-09-22T05:50:13.293Z,20.30
2017-09-22T05:52:40.746Z,20.00
2017-09-22T05:55:08.221Z,20.13
2017-09-22T05:57:35.669Z,20.10
2017-09-22T06:00:03.140Z,22.70
2017-09-22T06:02:30.620Z,26.23
2017-09-22T06:04:58.078Z,25.33
2017-09-22T06:07:26.310Z,23.60
2017-09-22T06:09:53.762Z,23.43
2017-09-22T06:12:21.239Z,21.53
2017-09-22T06:14:48.710Z,21.67
2017-09-22T06:17:16.167Z,20.80
2017-09-22T06:19:43.627Z,22.10
2017-09-22T06:22:11.870Z,20.10
2017-09-22T06:24:39.331Z,21.17
2017-09-22T06:27:06.837Z,20.37
2017-09-22T06:29:34.281Z,20.97
2017-09-22T06:32:02.521Z,20.10
2017-09-22T06:34:29.974Z,21.30
2017-09-22T06:36:58.217Z,22.20
2017-09-22T06:39:26.433Z,22.60
2017-09-22T06:41:54.645Z,22.80
2017-09-22T06:44:22.865Z,23.17
2017-09-22T06:46:50.324Z,23.53
2017-09-22T06:49:20.304Z,23.80
2017-09-22T06:51:47.760Z,22.40
2017-09-22T06:54:15.225Z,22.50
2017-09-22T06:56:42.674Z,22.43
2017-09-22T06:59:10.135Z,22.63
2017-09-22T07:01:37.587Z,25.57
2017-09-22T07:04:05.074Z,22.87
2017-09-22T07:06:32.530Z,22.90
2017-09-22T07:08:59.988Z,25.20
2017-09-22T07:11:27.442Z,23.00
2017-09-22T07:13:54.932Z,24.70
2017-09-22T07:16:22.402Z,24.50
2017-09-22T07:18:49.852Z,23.33
2017-09-22T07:21:17.325Z,23.70
2017-09-22T07:23:45.545Z,22.73
2017-09-22T07:26:13.017Z,22.27
2017-09-22T07:28:40.473Z,22.00
2017-09-22T07:31:07.940Z,21.93
2017-09-22T07:33:35.399Z,23.13
2017-09-22T07:36:02.880Z,23.80
2017-09-22T07:38:30.337Z,23.37
2017-09-22T07:40:57.801Z,22.07
2017-09-22T07:43:25.254Z,23.30
2017-09-22T07:45:52.709Z,22.83
2017-09-22T07:48:20.162Z,24.73
2017-09-22T07:50:47.733Z,23.50
2017-09-22T07:53:15.181Z,23.90
2017-09-22T07:55:42.654Z,23.67
2017-09-22T07:58:10.865Z,21.60
2017-09-22T08:00:38.325Z,23.27
2017-09-22T08:03:05.994Z,23.10
2017-09-22T08:05:33.445Z,21.60
2017-09-22T08:08:00.901Z,20.47
2017-09-22T08:10:29.123Z,21.27
2017-09-22T08:12:56.581Z,20.60
2017-09-22T08:15:24.040Z,22.10
2017-09-22T08:17:51.501Z,23.03
2017-09-22T08:20:18.962Z,23.57
2017-09-22T08:22:47.210Z,23.50
2017-09-22T08:25:15.486Z,25.17
2017-09-22T08:27:43.714Z,24.50
2017-09-22T08:30:11.189Z,25.40
2017-09-22T08:32:38.654Z,25.50
2017-09-22T08:35:06.133Z,24.17
2017-09-22T08:37:34.349Z,25.97
2017-09-22T08:40:02.570Z,25.33
2017-09-22T08:42:30.076Z,23.93
2017-09-22T08:44:58.297Z,26.40
2017-09-22T08:47:25.761Z,26.90
2017-09-22T08:49:53.214Z,24.57
2017-09-22T08:52:20.668Z,22.73
2017-09-22T08:54:48.129Z,23.90
2017-09-22T08:57:15.600Z,21.93
2017-09-22T08:59:43.089Z,21.20
2017-09-22T09:02:11.310Z,21.53
2017-09-22T09:04:38.778Z,20.13
2017-09-22T09:07:06.233Z,18.57
2017-09-22T09:09:34.465Z,19.50
2017-09-22T09:12:02.689Z,17.53
2017-09-22T09:14:30.146Z,15.63
2017-09-22T09:16:57.595Z,16.80
2017-09-22T09:19:25.090Z,15.70
2017-09-22T09:21:52.551Z,16.17
2017-09-22T09:24:20.000Z,16.63
2017-09-22T09:26:47.473Z,14.30
2017-09-22T09:29:15.694Z,16.73
2017-09-22T09:31:43.166Z,16.10
2017-09-22T09:34:10.614Z,18.20
2017-09-22T09:36:38.078Z,18.87
2017-09-22T09:39:05.529Z,18.87
2017-09-22T09:41:33.758Z,18.40
2017-09-22T09:44:01.989Z,20.77
2017-09-22T09:46:29.469Z,18.27
2017-09-22T09:48:56.928Z,18.70
2017-09-22T09:51:24.377Z,19.40
2017-09-22T09:53:52.596Z,21.23
2017-09-22T09:56:20.073Z,19.83
2017-09-22T09:58:47.579Z,19.10
2017-09-22T10:01:14.998Z,17.60
2017-09-22T10:03:42.462Z,15.00
2017-09-22T10:06:09.917Z,18.00
2017-09-22T10:08:37.384Z,18.20
2017-09-22T10:11:05.614Z,19.00
2017-09-22T10:13:33.109Z,16.60
2017-09-22T10:16:01.326Z,12.20
2017-09-22T10:18:29.560Z,11.70
2017-09-22T10:20:57.018Z,11.97
2017-09-22T10:23:25.340Z,12.50
2017-09-22T10:25:53.553Z,16.83
2017-09-22T10:28:21.024Z,14.80
2017-09-22T10:30:48.484Z,14.80
2017-09-22T10:33:15.954Z,12.90
2017-09-22T10:35:43.409Z,13.77
2017-09-22T10:38:10.870Z,14.50
2017-09-22T10:40:38.335Z,18.90
2017-09-22T10:43:05.781Z,16.90
2017-09-22T10:45:34.010Z,14.57
2017-09-22T10:48:01.472Z,16.00
2017-09-22T10:50:28.938Z,12.47
2017-09-22T10:52:56.386Z,12.77
2017-09-22T10:55:23.872Z,11.40
2017-09-22T10:57:51.328Z,13.87
2017-09-22T11:00:18.824Z,14.30
2017-09-22T11:02:46.274Z,14.07
2017-09-22T11:05:13.726Z,12.10
2017-09-22T11:07:42.147Z,12.20
2017-09-22T11:10:10.353Z,10.73
2017-09-22T11:12:37.817Z,9.10
2017-09-22T11:15:05.274Z,8.10
2017-09-22T11:17:32.747Z,8.40
2017-09-22T11:20:00.941Z,7.67
2017-09-22T11:22:28.401Z,6.67
2017-09-22T11:24:55.862Z,7.60
2017-09-22T11:27:23.315Z,6.97
2017-09-22T11:29:50.765Z,6.77
2017-09-22T11:32:18.230Z,9.87
2017-09-22T11:34:45.677Z,8.57
2017-09-22T11:37:13.146Z,11.53
2017-09-22T11:39:40.615Z,11.50
2017-09-22T11:42:08.839Z,12.77
2017-09-22T11:44:36.300Z,10.87
2017-09-22T11:47:03.769Z,12.30
2017-09-22T11:49:31.236Z,16.10
2017-09-22T11:51:58.693Z,12.43
2017-09-22T11:54:26.166Z,13.77
2017-09-22T11:56:53.617Z,11.00
2017-09-22T11:59:21.070Z,10.13
2017-09-22T12:01:48.522Z,11.67
2017-09-22T12:04:15.984Z,12.50
2017-09-22T12:06:43.434Z,8.00
2017-09-22T12:09:10.891Z,12.40
2017-09-22T12:11:38.365Z,12.20
2017-09-22T12:14:05.838Z,9.27
2017-09-22T12:16:33.281Z,8.30
2017-09-22T12:19:00.748Z,12.83
2017-09-22T12:21:28.967Z,9.80
2017-09-22T12:23:57.190Z,11.30
2017-09-22T12:26:25.417Z,7.07
2017-09-22T12:28:52.860Z,6.47
2017-09-22T12:31:20.322Z,6.93
2017-09-22T12:33:47.766Z,6.00
2017-09-22T12:36:15.221Z,5.40
2017-09-22T12:38:42.690Z,4.60
2017-09-22T12:41:10.164Z,8.80
2017-09-22T12:43:37.606Z,8.77
2017-09-22T12:46:05.054Z,7.33
2017-09-22T12:48:32.497Z,9.47
2017-09-22T12:50:59.961Z,8.27
2017-09-22T12:53:27.413Z,7.03
2017-09-22T12:55:54.871Z,5.63
2017-09-22T12:58:22.333Z,6.57
2017-09-22T13:00:49.790Z,7.13
2017-09-22T13:03:17.243Z,5.10
2017-09-22T13:05:44.689Z,5.10
2017-09-22T13:08:12.919Z,5.07
2017-09-22T13:10:40.357Z,4.47
2017-09-22T13:13:07.816Z,4.43
2017-09-22T13:15:35.270Z,6.50
2017-09-22T13:18:02.738Z,7.63
2017-09-22T13:20:30.181Z,7.93
2017-09-22T13:22:57.642Z,6.37
2017-09-22T13:25:25.098Z,6.07
2017-09-22T13:27:52.569Z,7.47
2017-09-22T13:30:20.036Z,5.30
2017-09-22T13:32:47.490Z,7.50
2017-09-22T13:35:14.973Z,8.27
2017-09-22T13:37:42.422Z,8.60
2017-09-22T13:40:09.890Z,8.50
2017-09-22T13:42:37.342Z,5.77
2017-09-22T13:45:04.797Z,5.97
2017-09-22T13:47:32.245Z,9.07
2017-09-22T13:49:59.702Z,6.80
2017-09-22T13:52:27.154Z,5.47
2017-09-22T13:54:54.608Z,5.07
2017-09-22T13:57:22.062Z,5.07
2017-09-22T13:59:49.512Z,7.73
2017-09-22T14:02:17.722Z,6.47
2017-09-22T14:04:45.181Z,4.93
2017-09-22T14:07:12.618Z,5.40
2017-09-22T14:09:40.069Z,4.30
2017-09-22T14:12:07.514Z,4.37
2017-09-22T14:14:35.778Z,5.10
2017-09-22T14:17:03.233Z,6.30
2017-09-22T14:19:30.690Z,4.70
2017-09-22T14:21:58.151Z,8.90
2017-09-22T14:24:25.596Z,6.67
2017-09-22T14:26:53.042Z,6.90
2017-09-22T14:29:20.486Z,6.00
2017-09-22T14:31:48.711Z,8.50
2017-09-22T14:34:16.177Z,6.93
2017-09-22T14:36:43.641Z,5.87
2017-09-22T14:39:11.082Z,6.10
2017-09-22T14:41:38.538Z,6.30
2017-09-22T14:44:06.019Z,7.47
2017-09-22T14:46:33.454Z,7.30
2017-09-22T14:49:00.901Z,7.90
2017-09-22T14:51:28.382Z,8.10
2017-09-22T14:53:55.837Z,7.47
2017-09-22T14:56:23.305Z,7.77
2017-09-22T14:58:50.751Z,7.10
2017-09-22T15:01:18.208Z,7.80
2017-09-22T15:03:46.431Z,8.70
2017-09-22T15:06:13.869Z,7.53
2017-09-22T15:08:42.094Z,8.07
2017-09-22T15:11:09.550Z,8.40
2017-09-22T15:13:37.005Z,8.43
2017-09-22T15:16:04.466Z,8.47
2017-09-22T15:18:31.915Z,7.63
2017-09-22T15:20:59.373Z,8.17
2017-09-22T15:23:26.932Z,8.37
2017-09-22T15:25:54.394Z,8.33
2017-09-22T15:28:21.854Z,8.57
2017-09-22T15:30:49.306Z,9.33
2017-09-22T15:33:16.763Z,8.20
2017-09-22T15:35:44.222Z,9.20
2017-09-22T15:38:11.687Z,9.80
2017-09-22T15:40:39.150Z,7.60
2017-09-22T15:43:06.613Z,7.63
2017-09-22T15:45:34.070Z,7.90
2017-09-22T15:48:02.282Z,9.60
2017-09-22T15:50:29.738Z,9.63
2017-09-22T15:52:57.192Z,10.00
2017-09-22T15:55:24.651Z,9.80
2017-09-22T15:57:52.100Z,10.00
2017-09-22T16:00:19.557Z,12.00
2017-09-22T16:02:47.008Z,19.60
2017-09-22T16:05:14.479Z,17.87
2017-09-22T16:07:41.934Z,15.50
2017-09-22T16:10:09.395Z,14.30
2017-09-22T16:12:36.850Z,13.13
2017-09-22T16:15:04.331Z,12.57
2017-09-22T16:17:31.779Z,13.60
2017-09-22T16:19:59.991Z,12.17
2017-09-22T16:22:27.446Z,15.33
2017-09-22T16:24:54.904Z,21.77
2017-09-22T16:27:22.361Z,20.90
2017-09-22T16:29:49.822Z,24.87
2017-09-22T16:32:17.277Z,24.27
2017-09-22T16:34:45.498Z,24.10
2017-09-22T16:37:12.955Z,33.13
2017-09-22T16:39:40.415Z,29.00
2017-09-22T16:42:07.878Z,30.07
2017-09-22T16:44:36.100Z,28.73
2017-09-22T16:47:04.331Z,29.13
2017-09-22T16:49:32.546Z,24.50
2017-09-22T16:52:00.769Z,27.83
2017-09-22T16:54:28.231Z,29.50
2017-09-22T16:56:55.698Z,27.73
2017-09-22T16:59:23.920Z,28.53
2017-09-22T17:01:51.371Z,30.03
2017-09-22T17:04:18.867Z,30.90
2017-09-22T17:06:46.282Z,33.70
2017-09-22T17:09:14.506Z,33.33
2017-09-22T17:11:41.966Z,37.07
2017-09-22T17:14:09.445Z,29.80
2017-09-22T17:16:36.902Z,25.47
2017-09-22T17:19:05.137Z,25.50
2017-09-22T17:21:32.584Z,24.00
2017-09-22T17:24:00.049Z,21.70
2017-09-22T17:26:28.261Z,21.37
2017-09-22T17:28:56.636Z,18.33
2017-09-22T17:31:24.133Z,16.20
2017-09-22T17:33:51.593Z,16.30
2017-09-22T17:36:19.052Z,15.50
2017-09-22T17:38:46.502Z,14.27
2017-09-22T17:41:13.953Z,14.20
2017-09-22T17:43:41.410Z,12.27
2017-09-22T17:46:08.862Z,12.83
2017-09-22T17:48:36.305Z,11.83
2017-09-22T17:51:04.530Z,11.67
2017-09-22T17:53:31.982Z,11.20
2017-09-22T17:55:59.442Z,10.90
2017-09-22T17:58:26.898Z,11.60
2017-09-22T18:00:54.355Z,11.50
2017-09-22T18:03:21.811Z,11.47
2017-09-22T18:08:23.909Z,10.70
2017-09-22T18:10:51.361Z,9.93
2017-09-22T18:13:19.590Z,9.97
2017-09-22T18:15:47.061Z,9.90
2017-09-22T18:18:14.511Z,10.23
2017-09-22T18:20:41.965Z,9.70
2017-09-22T18:23:09.406Z,9.40
2017-09-22T18:25:37.625Z,9.30
2017-09-22T18:28:05.079Z,9.83
2017-09-22T18:30:32.534Z,9.40
2017-09-22T18:32:59.996Z,9.23
2017-09-22T18:35:27.449Z,9.37
2017-09-22T18:37:54.906Z,9.60
2017-09-22T18:40:22.412Z,10.23
2017-09-22T18:42:49.856Z,9.67
2017-09-22T18:45:18.810Z,9.77
2017-09-22T18:47:46.275Z,9.17
2017-09-22T18:50:13.725Z,9.50
2017-09-22T18:52:41.186Z,10.33
2017-09-22T18:55:08.647Z,9.17
2017-09-22T18:57:36.123Z,9.23
2017-09-22T19:00:04.334Z,9.23
2017-09-22T19:02:32.558Z,9.93
2017-09-22T19:05:00.009Z,8.00
2017-09-22T19:07:27.474Z,10.23
2017-09-22T19:09:54.926Z,9.57
2017-09-22T19:12:22.394Z,9.03
2017-09-22T19:14:50.611Z,9.27
2017-09-22T19:17:18.843Z,9.87
2017-09-22T19:19:46.303Z,10.03
2017-09-22T19:22:13.797Z,9.07
2017-09-22T19:24:42.030Z,9.87
2017-09-22T19:27:09.489Z,9.10
2017-09-22T19:29:36.946Z,9.00
2017-09-22T19:32:04.414Z,9.23
2017-09-22T19:34:31.945Z,9.30
2017-09-22T19:37:00.174Z,9.10
2017-09-22T19:39:27.625Z,9.17
2017-09-22T19:41:55.074Z,9.70
2017-09-22T19:44:22.533Z,9.10
2017-09-22T19:46:49.987Z,9.70
2017-09-22T19:49:17.434Z,9.40
2017-09-22T19:51:44.881Z,9.37
2017-09-22T19:54:12.353Z,9.20
2017-09-22T19:56:39.798Z,9.00
2017-09-22T19:59:07.275Z,9.03
2017-09-22T20:01:34.726Z,9.80
2017-09-22T20:04:03.259Z,9.00
2017-09-22T20:06:30.770Z,9.33
2017-09-22T20:08:58.994Z,9.50
2017-09-22T20:11:26.459Z,8.90
2017-09-22T20:13:53.922Z,8.77
2017-09-22T20:16:21.372Z,9.00
2017-09-22T20:18:48.843Z,8.37
2017-09-22T20:21:16.337Z,8.87
2017-09-22T20:23:43.781Z,9.43
2017-09-22T20:26:11.248Z,9.20
2017-09-22T20:28:38.693Z,8.60
2017-09-22T20:31:06.147Z,9.63
2017-09-22T20:33:33.603Z,8.20
2017-09-22T20:36:01.071Z,9.30
2017-09-22T20:38:28.517Z,9.17
2017-09-22T20:40:55.974Z,9.97
2017-09-22T20:43:23.433Z,8.90
2017-09-22T20:45:50.885Z,9.53
2017-09-22T20:48:18.358Z,9.50
2017-09-22T20:50:45.849Z,9.63
2017-09-22T20:53:13.369Z,8.97
2017-09-22T20:55:40.827Z,9.30
2017-09-22T21:00:42.793Z,8.50
2017-09-22T21:03:10.257Z,9.10
2017-09-22T21:05:37.709Z,9.67
2017-09-22T21:08:05.162Z,9.00
2017-09-22T21:10:32.615Z,9.37
2017-09-22T21:13:00.070Z,9.20
2017-09-22T21:15:28.634Z,8.60
2017-09-22T21:17:56.858Z,9.37
2017-09-22T21:20:24.324Z,9.10
2017-09-22T21:22:51.798Z,9.10
2017-09-22T21:25:20.026Z,9.17
2017-09-22T21:27:47.487Z,9.20
2017-09-22T21:30:14.937Z,9.30
2017-09-22T21:32:42.398Z,8.60
2017-09-22T21:35:09.849Z,8.80
2017-09-22T21:37:37.307Z,9.77
2017-09-22T21:40:04.765Z,9.47
2017-09-22T21:42:32.229Z,8.80
2017-09-22T21:44:59.678Z,9.57
2017-09-22T21:47:27.144Z,8.50
2017-09-22T21:49:54.594Z,9.00
2017-09-22T21:52:22.055Z,8.13
2017-09-22T21:54:49.506Z,8.43
2017-09-22T21:57:16.967Z,8.93
2017-09-22T21:59:44.419Z,9.00
2017-09-22T22:02:11.877Z,8.40
2017-09-22T22:04:45.030Z,8.77
2017-09-22T22:10:10.806Z,8.47
2017-09-22T22:12:38.286Z,8.57
2017-09-22T22:15:05.742Z,8.27
2017-09-22T22:17:33.221Z,7.80
2017-09-22T22:20:00.713Z,8.10
2017-09-22T22:22:28.906Z,7.97
2017-09-22T22:24:56.367Z,8.47
2017-09-22T22:27:24.580Z,8.70
2017-09-22T22:29:52.090Z,8.90
2017-09-22T22:32:19.552Z,7.50
2017-09-22T22:34:47.009Z,8.27
2017-09-22T22:37:14.462Z,8.23
2017-09-22T22:39:41.934Z,8.40
2017-09-22T22:42:09.421Z,8.90
2017-09-22T22:44:36.899Z,8.87
2017-09-22T22:47:04.374Z,8.60
2017-09-22T22:49:31.869Z,8.63
2017-09-22T22:52:00.080Z,8.60
2017-09-22T22:54:28.317Z,8.03
2017-09-22T22:56:55.774Z,8.43
2017-09-22T22:59:23.230Z,8.30
2017-09-22T23:01:50.718Z,8.67
2017-09-22T23:04:18.181Z,7.97
2017-09-22T23:06:46.392Z,8.63
2017-09-22T23:09:13.853Z,8.07
2017-09-22T23:11:42.073Z,8.20
2017-09-22T23:14:09.510Z,8.23
2017-09-22T23:16:36.970Z,7.83
2017-09-22T23:19:05.173Z,7.67
2017-09-22T23:21:32.640Z,8.43
2017-09-22T23:24:01.595Z,8.57
2017-09-22T23:26:30.966Z,7.93
2017-09-22T23:28:58.417Z,8.10
2017-09-22T23:31:26.641Z,7.83
2017-09-22T23:33:54.126Z,8.20
2017-09-22T23:36:21.594Z,8.47
2017-09-22T23:38:49.853Z,8.33
2017-09-22T23:41:17.310Z,8.43
2017-09-22T23:43:44.825Z,7.90
2017-09-22T23:46:12.302Z,8.53
2017-09-22T23:48:39.776Z,8.30
2017-09-22T23:51:07.237Z,8.00
2017-09-22T23:53:34.713Z,7.90
2017-09-22T23:56:02.173Z,8.10
2017-09-22T23:58:29.615Z,8.43
